createdAt,value
2018-09-16T00:00:49.890Z,12.70
2018-09-16T00:03:18.251Z,12.70
2018-09-16T00:05:46.608Z,12.70
2018-09-16T00:08:14.960Z,12.70
2018-09-16T00:10:43.303Z,12.60
2018-09-16T00:13:11.652Z,12.60
2018-09-16T00:15:39.995Z,12.60
2018-09-16T00:18:08.336Z,12.60
2018-09-16T00:20:36.678Z,12.60
2018-09-16T00:23:06.943Z,12.60
2018-09-16T00:25:35.308Z,12.60
2018-09-16T00:28:03.684Z,12.50
2018-09-16T00:30:32.065Z,12.50
2018-09-16T00:33:00.440Z,12.50
2018-09-16T00:35:28.775Z,12.40
2018-09-16T00:37:57.179Z,12.30
2018-09-16T00:40:25.665Z,12.20
2018-09-16T00:42:54.010Z,12.20
2018-09-16T00:45:22.364Z,12.20
2018-09-16T00:47:50.791Z,12.30
2018-09-16T00:50:19.143Z,12.30
2018-09-16T00:52:47.538Z,12.30
2018-09-16T00:55:15.885Z,12.30
2018-09-16T00:57:44.247Z,12.20
2018-09-16T01:00:12.644Z,12.20
2018-09-16T01:02:41.003Z,12.10
2018-09-16T01:05:09.408Z,12.10
2018-09-16T01:07:37.760Z,12.10
2018-09-16T01:10:06.124Z,12.10
2018-09-16T01:12:34.484Z,12.00
2018-09-16T01:15:02.860Z,12.00
2018-09-16T01:17:31.211Z,11.90
2018-09-16T01:19:59.605Z,11.80
2018-09-16T01:22:27.996Z,11.70
2018-09-16T01:24:56.339Z,11.80
2018-09-16T01:27:24.667Z,11.70
2018-09-16T01:29:53.091Z,11.80
2018-09-16T01:32:21.467Z,11.80
2018-09-16T01:34:49.887Z,11.80
2018-09-16T01:37:23.599Z,11.80
2018-09-16T01:39:51.916Z,11.70
2018-09-16T01:42:20.221Z,11.70
2018-09-16T01:44:48.610Z,11.70
2018-09-16T01:47:16.990Z,11.70
2018-09-16T01:49:45.351Z,11.70
2018-09-16T01:52:13.749Z,11.70
2018-09-16T01:54:42.109Z,11.70
2018-09-16T01:57:10.456Z,11.60
2018-09-16T01:59:38.756Z,11.50
2018-09-16T02:02:07.135Z,11.50
2018-09-16T02:04:41.382Z,11.50
2018-09-16T02:07:11.168Z,11.50
2018-09-16T02:09:39.477Z,11.50
2018-09-16T02:12:08.010Z,11.50
2018-09-16T02:14:36.373Z,11.50
2018-09-16T02:17:04.770Z,11.40
2018-09-16T02:19:33.134Z,11.30
2018-09-16T02:22:01.549Z,11.30
2018-09-16T02:24:29.892Z,11.20
2018-09-16T02:26:58.220Z,11.10
2018-09-16T02:29:26.563Z,11.10
2018-09-16T02:31:54.952Z,11.10
2018-09-16T02:34:23.313Z,11.10
2018-09-16T02:36:51.737Z,11.10
2018-09-16T02:39:20.064Z,11.20
2018-09-16T02:41:48.444Z,11.20
2018-09-16T02:44:16.793Z,11.10
2018-09-16T02:46:45.129Z,11.10
2018-09-16T02:49:13.476Z,11.10
2018-09-16T02:51:41.801Z,11.10
2018-09-16T02:54:10.129Z,11.10
2018-09-16T02:56:38.503Z,11.10
2018-09-16T02:59:06.913Z,11.10
2018-09-16T03:01:35.310Z,11.10
2018-09-16T03:04:03.651Z,11.10
2018-09-16T03:06:33.069Z,11.10
2018-09-16T03:09:02.024Z,11.10
2018-09-16T03:11:31.052Z,11.10
2018-09-16T03:13:59.413Z,11.10
2018-09-16T03:16:27.754Z,11.10
2018-09-16T03:18:56.173Z,11.00
2018-09-16T03:21:24.465Z,11.00
2018-09-16T03:23:52.989Z,10.90
2018-09-16T03:26:21.416Z,10.90
2018-09-16T03:28:49.741Z,11.00
2018-09-16T03:31:18.469Z,10.90
2018-09-16T03:33:46.845Z,10.90
2018-09-16T03:36:15.148Z,10.90
2018-09-16T03:38:43.508Z,10.80
2018-09-16T03:41:11.878Z,10.80
2018-09-16T03:43:40.224Z,10.80
2018-09-16T03:46:08.545Z,10.80
2018-09-16T03:48:36.938Z,10.80
2018-09-16T03:51:05.277Z,10.80
2018-09-16T03:53:33.647Z,10.70
2018-09-16T03:56:02.008Z,10.70
2018-09-16T03:58:30.374Z,10.70
2018-09-16T04:00:58.863Z,10.70
2018-09-16T04:03:27.175Z,10.70
2018-09-16T04:05:55.528Z,10.70
2018-09-16T04:08:23.858Z,10.60
2018-09-16T04:10:52.203Z,10.60
2018-09-16T04:13:20.564Z,10.50
2018-09-16T04:15:48.889Z,10.60
2018-09-16T04:18:17.263Z,10.50
2018-09-16T04:20:45.596Z,10.50
2018-09-16T04:23:13.956Z,10.50
2018-09-16T04:25:42.255Z,10.50
2018-09-16T04:28:10.592Z,10.50
2018-09-16T04:30:38.932Z,10.40
2018-09-16T04:33:07.320Z,10.40
2018-09-16T04:35:35.653Z,10.40
2018-09-16T04:38:03.963Z,10.40
2018-09-16T04:40:32.313Z,10.40
2018-09-16T04:43:00.683Z,10.40
2018-09-16T04:45:29.020Z,10.40
2018-09-16T04:47:57.343Z,10.40
2018-09-16T04:50:25.693Z,10.30
2018-09-16T04:52:54.024Z,10.30
2018-09-16T04:55:22.381Z,10.30
2018-09-16T04:57:50.770Z,10.20
2018-09-16T05:00:19.215Z,10.20
2018-09-16T05:02:47.571Z,10.20
2018-09-16T05:05:15.945Z,10.30
2018-09-16T05:07:44.299Z,10.30
2018-09-16T05:10:12.652Z,10.30
2018-09-16T05:12:41.025Z,10.30
2018-09-16T05:15:09.388Z,10.40
2018-09-16T05:17:37.680Z,10.40
2018-09-16T05:20:06.052Z,10.30
2018-09-16T05:22:34.388Z,10.40
2018-09-16T05:25:02.747Z,10.50
2018-09-16T05:27:31.107Z,10.50
2018-09-16T05:29:59.459Z,10.50
2018-09-16T05:32:27.845Z,10.50
2018-09-16T05:34:56.228Z,10.60
2018-09-16T05:37:24.562Z,10.60
2018-09-16T05:39:52.892Z,10.50
2018-09-16T05:42:21.241Z,10.50
2018-09-16T05:44:49.575Z,10.50
2018-09-16T05:47:17.930Z,10.50
2018-09-16T05:49:46.259Z,10.60
2018-09-16T05:52:14.613Z,10.60
2018-09-16T05:54:42.945Z,10.70
2018-09-16T05:57:11.389Z,10.70
2018-09-16T05:59:39.751Z,10.70
2018-09-16T06:02:08.109Z,10.80
2018-09-16T06:04:36.528Z,10.80
2018-09-16T06:07:04.881Z,10.90
2018-09-16T06:09:33.235Z,10.90
2018-09-16T06:12:01.605Z,10.80
2018-09-16T06:14:29.970Z,10.90
2018-09-16T06:16:58.307Z,11.00
2018-09-16T06:19:26.723Z,11.10
2018-09-16T06:21:55.065Z,11.20
2018-09-16T06:24:23.437Z,11.30
2018-09-16T06:26:51.772Z,11.30
2018-09-16T06:29:20.121Z,11.40
2018-09-16T06:31:48.444Z,11.50
2018-09-16T06:34:16.817Z,11.60
2018-09-16T06:36:45.185Z,11.60
2018-09-16T06:39:14.824Z,11.70
2018-09-16T06:41:43.274Z,11.70
2018-09-16T06:44:11.656Z,11.90
2018-09-16T06:46:40.034Z,11.90
2018-09-16T06:49:08.792Z,12.00
2018-09-16T06:51:37.448Z,12.00
2018-09-16T06:54:05.934Z,12.00
2018-09-16T06:56:34.294Z,12.20
2018-09-16T06:59:02.641Z,12.30
2018-09-16T07:01:30.989Z,12.50
2018-09-16T07:03:59.327Z,12.70
2018-09-16T07:06:27.753Z,12.70
2018-09-16T07:08:56.065Z,12.90
2018-09-16T07:11:24.379Z,12.90
2018-09-16T07:13:52.725Z,13.00
2018-09-16T07:16:21.153Z,13.10
2018-09-16T07:18:49.526Z,13.30
2018-09-16T07:21:17.886Z,13.40
2018-09-16T07:23:46.255Z,13.40
2018-09-16T07:26:14.617Z,13.50
2018-09-16T07:28:42.991Z,13.60
2018-09-16T07:31:11.381Z,13.80
2018-09-16T07:33:39.753Z,14.00
2018-09-16T07:36:08.141Z,14.10
2018-09-16T07:38:36.498Z,14.20
2018-09-16T07:41:04.918Z,14.30
2018-09-16T07:43:33.289Z,14.40
2018-09-16T07:46:01.636Z,14.60
2018-09-16T07:48:30.008Z,14.70
2018-09-16T07:50:58.389Z,14.70
2018-09-16T07:53:26.709Z,14.90
2018-09-16T07:55:55.047Z,15.00
2018-09-16T07:58:23.431Z,15.10
2018-09-16T08:00:51.817Z,15.30
2018-09-16T08:04:49.624Z,15.40
2018-09-16T08:07:18.052Z,15.60
2018-09-16T08:09:46.518Z,16.30
2018-09-16T08:12:14.873Z,16.50
2018-09-16T08:14:43.250Z,16.60
2018-09-16T08:17:11.868Z,16.80
2018-09-16T08:19:40.164Z,16.90
2018-09-16T08:22:08.512Z,16.70
2018-09-16T08:24:36.864Z,16.90
2018-09-16T08:27:05.287Z,16.90
2018-09-16T08:29:33.669Z,16.90
2018-09-16T08:32:02.059Z,17.00
2018-09-16T08:34:30.408Z,17.10
2018-09-16T08:36:58.770Z,17.30
2018-09-16T08:39:27.140Z,17.50
2018-09-16T08:41:55.455Z,17.70
2018-09-16T08:44:23.805Z,18.00
2018-09-16T08:46:52.139Z,18.00
2018-09-16T08:49:20.503Z,18.00
2018-09-16T08:51:52.354Z,18.20
2018-09-16T08:54:20.806Z,18.20
2018-09-16T08:56:49.500Z,18.30
2018-09-16T08:59:17.969Z,18.60
2018-09-16T09:01:46.359Z,18.90
2018-09-16T09:04:14.763Z,18.90
2018-09-16T09:06:43.121Z,18.90
2018-09-16T09:09:12.780Z,19.20
2018-09-16T09:11:42.028Z,19.40
2018-09-16T09:14:10.644Z,19.60
2018-09-16T09:16:38.956Z,19.80
2018-09-16T09:19:07.358Z,20.10
2018-09-16T09:21:35.720Z,19.90
2018-09-16T09:24:04.075Z,19.90
2018-09-16T09:26:32.467Z,20.10
2018-09-16T09:29:00.944Z,20.20
2018-09-16T09:31:29.248Z,20.30
2018-09-16T09:33:57.585Z,20.50
2018-09-16T09:36:25.984Z,20.70
2018-09-16T09:38:54.684Z,20.80
2018-09-16T09:41:23.057Z,20.90
2018-09-16T09:43:51.441Z,21.00
2018-09-16T09:46:19.749Z,21.20
2018-09-16T09:48:48.080Z,21.20
2018-09-16T09:51:16.455Z,21.60
2018-09-16T09:53:44.859Z,21.50
2018-09-16T09:56:13.253Z,21.30
2018-09-16T09:58:41.564Z,21.30
2018-09-16T10:01:09.956Z,21.30
2018-09-16T10:03:38.335Z,21.10
2018-09-16T10:06:06.746Z,21.40
2018-09-16T10:08:35.072Z,21.40
2018-09-16T10:11:03.396Z,21.80
2018-09-16T10:13:31.748Z,21.80
2018-09-16T10:16:00.077Z,21.90
2018-09-16T10:18:28.437Z,21.90
2018-09-16T10:20:56.774Z,22.10
2018-09-16T10:23:25.125Z,22.50
2018-09-16T10:25:53.512Z,22.30
2018-09-16T10:28:21.893Z,22.30
2018-09-16T10:30:50.295Z,22.30
2018-09-16T10:33:18.637Z,22.40
2018-09-16T10:35:47.035Z,22.50
2018-09-16T10:38:15.455Z,22.70
2018-09-16T10:40:43.867Z,22.90
2018-09-16T10:43:12.208Z,23.20
2018-09-16T10:45:40.652Z,23.30
2018-09-16T10:48:09.002Z,23.40
2018-09-16T10:50:37.407Z,23.40
2018-09-16T10:53:05.844Z,23.70
2018-09-16T10:55:34.212Z,24.10
2018-09-16T10:58:02.577Z,24.80
2018-09-16T11:00:30.899Z,25.20
2018-09-16T11:02:59.268Z,26.00
2018-09-16T11:05:27.632Z,25.70
2018-09-16T11:07:55.990Z,24.80
2018-09-16T11:10:24.363Z,25.50
2018-09-16T11:12:52.693Z,25.70
2018-09-16T11:15:21.088Z,25.80
2018-09-16T11:17:49.433Z,26.50
2018-09-16T11:20:17.779Z,27.00
2018-09-16T11:22:46.124Z,27.20
2018-09-16T11:25:14.630Z,27.20
2018-09-16T11:27:42.966Z,26.70
2018-09-16T11:30:11.403Z,26.50
2018-09-16T11:32:39.785Z,26.80
2018-09-16T11:35:08.216Z,27.10
2018-09-16T11:37:36.556Z,27.40
2018-09-16T11:40:04.934Z,27.70
2018-09-16T11:42:33.326Z,27.90
2018-09-16T11:45:01.634Z,28.70
2018-09-16T11:47:29.989Z,28.90
2018-09-16T11:49:58.291Z,28.90
2018-09-16T11:52:26.706Z,29.00
2018-09-16T11:54:55.072Z,28.70
2018-09-16T11:57:23.407Z,28.30
2018-09-16T11:59:51.774Z,28.00
2018-09-16T12:02:20.124Z,28.10
2018-09-16T12:04:48.541Z,28.30
2018-09-16T12:07:18.033Z,28.70
2018-09-16T12:09:46.461Z,28.80
2018-09-16T12:12:14.787Z,29.20
2018-09-16T12:14:43.264Z,28.70
2018-09-16T12:17:11.681Z,27.90
2018-09-16T12:19:40.023Z,28.20
2018-09-16T12:22:08.363Z,28.50
2018-09-16T12:24:36.734Z,28.80
2018-09-16T12:27:05.098Z,28.30
2018-09-16T12:29:33.437Z,28.30
2018-09-16T12:32:01.788Z,28.50
2018-09-16T12:34:30.104Z,28.50
2018-09-16T12:36:58.422Z,28.30
2018-09-16T12:39:26.793Z,29.00
2018-09-16T12:41:55.117Z,29.40
2018-09-16T12:44:23.445Z,29.80
2018-09-16T12:46:51.831Z,29.30
2018-09-16T12:49:20.204Z,29.60
2018-09-16T12:51:48.508Z,29.40
2018-09-16T12:54:16.872Z,29.70
2018-09-16T12:56:45.234Z,29.90
2018-09-16T12:59:13.595Z,30.10
2018-09-16T13:01:42.004Z,30.10
2018-09-16T13:04:10.383Z,30.20
2018-09-16T13:06:38.685Z,30.20
2018-09-16T13:09:09.381Z,30.90
2018-09-16T13:11:37.836Z,30.60
2018-09-16T13:14:06.351Z,30.40
2018-09-16T13:16:34.868Z,30.80
2018-09-16T13:19:03.565Z,31.10
2018-09-16T13:21:32.011Z,30.70
2018-09-16T13:24:00.381Z,30.30
2018-09-16T13:26:28.771Z,30.30
2018-09-16T13:28:57.112Z,30.30
2018-09-16T13:31:25.432Z,30.90
2018-09-16T13:33:53.784Z,31.30
2018-09-16T13:36:22.092Z,31.50
2018-09-16T13:38:50.423Z,30.80
2018-09-16T13:41:18.805Z,31.30
2018-09-16T13:43:47.172Z,31.20
2018-09-16T13:46:15.461Z,31.50
2018-09-16T13:48:43.845Z,31.20
2018-09-16T13:51:12.289Z,31.50
2018-09-16T13:53:40.676Z,31.80
2018-09-16T13:56:08.963Z,31.70
2018-09-16T13:58:37.338Z,32.10
2018-09-16T14:01:05.917Z,32.10
2018-09-16T14:03:34.281Z,32.30
2018-09-16T14:06:02.691Z,31.50
2018-09-16T14:08:31.056Z,31.90
2018-09-16T14:10:59.440Z,31.90
2018-09-16T14:13:27.837Z,32.10
2018-09-16T14:15:56.194Z,31.70
2018-09-16T14:18:24.577Z,31.20
2018-09-16T14:20:52.928Z,31.40
2018-09-16T14:23:21.337Z,31.60
2018-09-16T14:25:49.716Z,31.80
2018-09-16T14:28:18.150Z,31.90
2018-09-16T14:30:46.599Z,32.70
2018-09-16T14:33:14.986Z,33.00
2018-09-16T14:35:43.429Z,32.40
2018-09-16T14:38:11.804Z,32.30
2018-09-16T14:40:40.255Z,31.40
2018-09-16T14:43:08.775Z,30.00
2018-09-16T14:45:37.208Z,29.60
2018-09-16T14:48:05.613Z,29.90
2018-09-16T14:50:34.012Z,30.50
2018-09-16T14:53:02.409Z,31.00
2018-09-16T14:55:30.861Z,31.10
2018-09-16T14:57:59.287Z,30.70
2018-09-16T15:00:27.641Z,30.70
2018-09-16T15:02:56.069Z,30.50
2018-09-16T15:05:24.471Z,30.20
2018-09-16T15:07:52.933Z,28.90
2018-09-16T15:10:21.353Z,28.30
2018-09-16T15:12:49.672Z,28.20
2018-09-16T15:15:18.053Z,27.70
2018-09-16T15:17:46.430Z,27.50
2018-09-16T15:20:14.760Z,27.30
2018-09-16T15:22:43.159Z,27.30
2018-09-16T15:25:11.526Z,27.00
2018-09-16T15:27:39.878Z,26.70
2018-09-16T15:30:08.305Z,26.60
2018-09-16T15:32:36.611Z,26.40
2018-09-16T15:35:05.034Z,26.40
2018-09-16T15:37:33.408Z,26.30
2018-09-16T15:40:01.795Z,26.20
2018-09-16T15:42:30.224Z,26.20
2018-09-16T15:44:58.553Z,26.10
2018-09-16T15:47:26.868Z,26.00
2018-09-16T15:49:55.282Z,25.90
2018-09-16T15:52:23.628Z,25.80
2018-09-16T15:54:52.027Z,25.70
2018-09-16T15:57:20.408Z,25.60
2018-09-16T15:59:48.788Z,25.60
2018-09-16T16:02:17.130Z,25.60
2018-09-16T16:04:45.452Z,25.60
2018-09-16T16:07:13.808Z,25.60
2018-09-16T16:09:42.164Z,25.80
2018-09-16T16:12:10.556Z,25.70
2018-09-16T16:14:38.884Z,25.70
2018-09-16T16:17:07.282Z,25.70
2018-09-16T16:19:35.693Z,25.70
2018-09-16T16:22:04.077Z,25.60
2018-09-16T16:24:32.440Z,25.50
2018-09-16T16:27:00.824Z,25.60
2018-09-16T16:29:29.380Z,25.50
2018-09-16T16:31:57.746Z,25.50
2018-09-16T16:34:26.181Z,25.30
2018-09-16T16:36:54.502Z,25.20
2018-09-16T16:39:22.939Z,25.20
2018-09-16T16:41:51.320Z,25.10
2018-09-16T16:44:19.724Z,25.10
2018-09-16T16:46:48.139Z,25.10
2018-09-16T16:49:16.470Z,25.00
2018-09-16T16:51:44.823Z,25.00
2018-09-16T16:54:13.179Z,25.00
2018-09-16T16:56:41.597Z,25.10
2018-09-16T16:59:09.981Z,25.10
2018-09-16T17:01:38.383Z,25.00
2018-09-16T17:04:06.822Z,25.00
2018-09-16T17:06:35.209Z,24.80
2018-09-16T17:09:04.087Z,24.70
2018-09-16T17:11:32.460Z,24.50
2018-09-16T17:14:00.965Z,24.40
2018-09-16T17:16:31.627Z,24.30
2018-09-16T17:19:01.760Z,24.20
2018-09-16T17:21:31.753Z,24.10
2018-09-16T17:24:01.557Z,24.10
2018-09-16T17:26:30.702Z,23.90
2018-09-16T17:28:59.672Z,23.80
2018-09-16T17:31:28.164Z,23.70
2018-09-16T17:33:56.538Z,23.60
2018-09-16T17:36:24.995Z,23.60
2018-09-16T17:38:53.367Z,23.50
2018-09-16T17:41:22.185Z,23.40
2018-09-16T17:43:51.587Z,23.40
2018-09-16T17:46:20.756Z,23.40
2018-09-16T17:48:49.861Z,23.30
2018-09-16T17:51:18.385Z,23.20
2018-09-16T17:53:46.817Z,23.10
2018-09-16T17:56:15.296Z,23.00
2018-09-16T17:58:43.621Z,23.00
2018-09-16T18:01:11.948Z,22.90
2018-09-16T18:03:40.368Z,22.70
2018-09-16T18:06:09.111Z,22.60
2018-09-16T18:08:43.102Z,22.50
2018-09-16T18:11:12.406Z,22.40
2018-09-16T18:13:40.800Z,22.30
2018-09-16T18:16:09.270Z,22.20
2018-09-16T18:18:38.044Z,22.00
2018-09-16T18:21:06.527Z,21.90
2018-09-16T18:23:34.918Z,21.80
2018-09-16T18:26:03.312Z,21.70
2018-09-16T18:28:32.450Z,21.60
2018-09-16T18:31:01.311Z,21.50
2018-09-16T18:33:29.998Z,21.50
2018-09-16T18:35:58.439Z,21.40
2018-09-16T18:38:26.919Z,21.30
2018-09-16T18:40:55.493Z,21.20
2018-09-16T18:43:23.897Z,21.10
2018-09-16T18:45:52.361Z,21.00
2018-09-16T18:48:20.734Z,20.80
2018-09-16T18:50:49.142Z,20.70
2018-09-16T18:53:17.935Z,20.60
2018-09-16T18:55:46.391Z,20.50
2018-09-16T18:58:15.173Z,20.50
2018-09-16T19:00:43.540Z,20.50
2018-09-16T19:03:12.249Z,20.50
2018-09-16T19:05:40.787Z,20.40
2018-09-16T19:08:09.709Z,20.20
2018-09-16T19:10:38.090Z,20.10
2018-09-16T19:13:06.782Z,20.00
2018-09-16T19:15:35.182Z,20.00
2018-09-16T19:18:03.784Z,20.00
2018-09-16T19:20:32.164Z,19.80
2018-09-16T19:23:00.792Z,19.70
2018-09-16T19:25:29.350Z,19.70
2018-09-16T19:27:57.976Z,19.50
2018-09-16T19:30:27.261Z,19.40
2018-09-16T19:32:55.761Z,19.30
2018-09-16T19:35:24.081Z,19.30
2018-09-16T19:37:52.786Z,19.20
2018-09-16T19:40:21.349Z,19.20
2018-09-16T19:42:50.195Z,19.10
2018-09-16T19:45:18.918Z,19.00
2018-09-16T19:47:47.576Z,18.90
2018-09-16T19:50:16.165Z,18.80
2018-09-16T19:52:44.616Z,18.80
2018-09-16T19:55:13.100Z,18.80
2018-09-16T19:57:41.652Z,18.70
2018-09-16T20:00:10.636Z,18.70
2018-09-16T20:02:39.180Z,18.60
2018-09-16T20:05:08.240Z,18.60
2018-09-16T20:07:36.717Z,18.50
2018-09-16T20:10:05.191Z,18.40
2018-09-16T20:12:33.551Z,18.30
2018-09-16T20:15:02.056Z,18.30
2018-09-16T20:17:30.458Z,18.20
2018-09-16T20:19:58.869Z,18.20
2018-09-16T20:22:27.331Z,18.10
2018-09-16T20:24:55.724Z,17.90
2018-09-16T20:27:24.149Z,17.90
2018-09-16T20:29:52.490Z,17.80
2018-09-16T20:32:20.875Z,17.70
2018-09-16T20:34:49.329Z,17.60
2018-09-16T20:37:17.772Z,17.60
2018-09-16T20:39:46.150Z,17.50
2018-09-16T20:42:14.536Z,17.40
2018-09-16T20:44:42.966Z,17.40
2018-09-16T20:47:11.281Z,17.30
2018-09-16T20:49:39.782Z,17.20
2018-09-16T20:52:08.192Z,17.10
2018-09-16T20:54:36.564Z,17.00
2018-09-16T20:57:04.935Z,16.90
2018-09-16T20:59:33.408Z,16.90
2018-09-16T21:02:02.039Z,16.80
2018-09-16T21:04:30.825Z,16.80
2018-09-16T21:06:59.270Z,16.80
2018-09-16T21:09:27.661Z,16.80
2018-09-16T21:11:56.036Z,16.80
2018-09-16T21:14:24.412Z,16.80
2018-09-16T21:16:52.753Z,16.80
2018-09-16T21:19:21.141Z,16.80
2018-09-16T21:21:49.476Z,16.70
2018-09-16T21:24:17.824Z,16.60
2018-09-16T21:26:46.257Z,16.60
2018-09-16T21:29:14.613Z,16.50
2018-09-16T21:31:42.992Z,16.40
2018-09-16T21:34:11.352Z,16.40
2018-09-16T21:36:39.709Z,16.40
2018-09-16T21:39:10.184Z,16.40
2018-09-16T21:41:38.566Z,16.40
2018-09-16T21:44:06.929Z,16.30
2018-09-16T21:46:35.334Z,16.30
2018-09-16T21:49:03.687Z,16.30
2018-09-16T21:51:32.014Z,16.20
2018-09-16T21:54:00.459Z,16.20
2018-09-16T21:56:28.808Z,16.20
2018-09-16T21:58:57.179Z,16.10
2018-09-16T22:01:25.529Z,16.10
2018-09-16T22:03:53.837Z,15.90
2018-09-16T22:06:22.220Z,16.00
2018-09-16T22:08:50.597Z,15.90
2018-09-16T22:11:18.964Z,15.90
2018-09-16T22:13:47.375Z,15.90
2018-09-16T22:16:15.713Z,15.80
2018-09-16T22:18:44.059Z,15.80
2018-09-16T22:21:12.453Z,15.80
2018-09-16T22:23:40.772Z,15.70
2018-09-16T22:26:09.164Z,15.70
2018-09-16T22:28:37.530Z,15.60
2018-09-16T22:31:05.881Z,15.50
2018-09-16T22:33:34.229Z,15.40
2018-09-16T22:36:02.581Z,15.40
2018-09-16T22:38:30.989Z,15.40
2018-09-16T22:40:59.393Z,15.30
2018-09-16T22:43:27.729Z,15.30
2018-09-16T22:45:56.086Z,15.30
2018-09-16T22:48:24.451Z,15.20
2018-09-16T22:50:52.830Z,15.20
2018-09-16T22:53:21.184Z,15.10
2018-09-16T22:55:49.556Z,15.20
2018-09-16T22:58:17.952Z,15.10
2018-09-16T23:00:46.301Z,15.10
2018-09-16T23:03:14.635Z,15.10
2018-09-16T23:05:43.019Z,15.00
2018-09-16T23:08:11.356Z,15.00
2018-09-16T23:10:39.730Z,15.00
2018-09-16T23:13:08.086Z,14.90
2018-09-16T23:15:36.453Z,14.90
2018-09-16T23:18:04.785Z,14.90
2018-09-16T23:20:33.521Z,14.90
2018-09-16T23:23:01.815Z,14.80
2018-09-16T23:25:30.198Z,14.80
2018-09-16T23:27:58.588Z,14.80
2018-09-16T23:30:27.037Z,14.80
2018-09-16T23:32:55.370Z,14.70
2018-09-16T23:35:23.737Z,14.80
2018-09-16T23:37:52.092Z,14.70
2018-09-16T23:40:20.431Z,14.70
2018-09-16T23:42:48.778Z,14.70
2018-09-16T23:45:17.207Z,14.70
2018-09-16T23:47:45.536Z,14.60
2018-09-16T23:50:13.896Z,14.60
2018-09-16T23:52:42.205Z,14.50
2018-09-16T23:55:10.560Z,14.50
2018-09-16T23:57:38.867Z,14.40
